KFEW/FEW METAR and TAF weather

Enter ICAO airport designator
Station Type Date Time Source
KFEW METAR 2019/08/24 17:58 UTC NOAA

KFEW 241758Z AUTO 31017KT 10SM FEW080 25/01 A3010 RMK AO2 SLP114 T02540012 10255 20117 50004 $


Station Type Date Time Source
KFEW Decoded METAR 2019/08/24 17:58 UTC NOAA

Station name not available
Aug 24, 2019 - 01:58 PM EDT / 2019.08.24 1758 UTC
Wind: from the NW (310 degrees) at 20 MPH (17 KT):0
Visibility: 10 mile(s):0
Sky conditions: mostly clear
Temperature: 77.7 F (25.4 C)
Dew Point: 34.2 F (1.2 C)
Relative Humidity: 20%
Pressure (altimeter): 30.1 in. Hg (1019 hPa)
Pressure tendency: 0.01 inches (0.4 hPa) higher than three hours ago
ob: KFEW 241758Z AUTO 31017KT 10SM FEW080 25/01 A3010 RMK AO2 SLP114 T02540012 10255 20117 50004
cycle: 18

Station Type Date Time Source
KFEW TAF UTC NOAA

Error!

Example: see airport list